createdAt,value
2022-12-23T00:01:50.129Z,4.17
2022-12-23T00:04:18.549Z,4.53
2022-12-23T00:06:48.332Z,5.50
2022-12-23T00:09:16.987Z,7.03
2022-12-23T00:12:13.699Z,4.53
2022-12-23T00:14:59.324Z,4.63
2022-12-23T00:17:27.686Z,5.23
2022-12-23T00:19:56.161Z,4.87
2022-12-23T00:22:46.118Z,3.00
2022-12-23T00:25:14.875Z,5.77
2022-12-23T00:27:43.370Z,3.40
2022-12-23T00:30:12.471Z,2.77
2022-12-23T00:32:40.719Z,4.03
2022-12-23T00:35:09.612Z,3.80
2022-12-23T00:37:39.287Z,3.60
2022-12-23T00:40:27.349Z,3.73
2022-12-23T00:42:55.706Z,2.77
2022-12-23T00:45:24.916Z,2.83
2022-12-23T00:48:10.738Z,2.00
2022-12-23T00:50:40.639Z,5.13
2022-12-23T00:53:10.322Z,2.60
2022-12-23T00:55:38.598Z,3.77
2022-12-23T00:58:07.036Z,3.60
2022-12-23T01:00:52.765Z,2.97
2022-12-23T01:03:38.416Z,2.80
2022-12-23T01:06:07.248Z,2.00
2022-12-23T01:08:36.919Z,3.93
2022-12-23T01:11:06.193Z,3.57
2022-12-23T01:13:34.971Z,2.53
2022-12-23T01:16:04.328Z,2.50
2022-12-23T01:18:32.661Z,2.63
2022-12-23T01:21:03.952Z,3.30
2022-12-23T01:23:32.625Z,2.37
2022-12-23T01:26:04.327Z,2.67
2022-12-23T01:28:33.928Z,3.13
2022-12-23T01:31:03.721Z,3.83
2022-12-23T01:33:33.258Z,3.30
2022-12-23T01:36:02.745Z,3.43
2022-12-23T01:38:31.267Z,4.80
2022-12-23T01:41:01.417Z,4.40
2022-12-23T01:43:46.022Z,3.00
2022-12-23T01:46:14.633Z,5.10
2022-12-23T01:48:45.913Z,3.60
2022-12-23T01:51:17.352Z,2.63
2022-12-23T01:53:48.525Z,3.37
2022-12-23T01:56:23.956Z,6.20
2022-12-23T01:58:55.470Z,3.20
2022-12-23T02:01:41.593Z,3.83
2022-12-23T02:04:13.135Z,4.80
2022-12-23T02:07:01.471Z,3.07
2022-12-23T02:09:31.964Z,4.30
2022-12-23T02:12:45.008Z,4.03
2022-12-23T02:15:44.565Z,4.27
2022-12-23T02:18:29.931Z,3.83
2022-12-23T02:21:21.658Z,5.17
2022-12-23T02:24:38.820Z,4.13
2022-12-23T02:27:14.597Z,7.83
2022-12-23T02:30:24.839Z,7.43
2022-12-23T02:33:30.913Z,8.10
2022-12-23T02:36:10.208Z,5.43
2022-12-23T02:38:47.114Z,7.97
2022-12-23T02:41:21.203Z,5.63
2022-12-23T02:43:56.693Z,7.00
2022-12-23T02:46:33.023Z,5.47
2022-12-23T02:49:09.209Z,6.87
2022-12-23T02:51:41.540Z,7.07
2022-12-23T02:54:14.214Z,7.63
2022-12-23T02:56:47.367Z,5.57
2022-12-23T02:59:18.816Z,5.77
2022-12-23T03:01:48.746Z,6.10
2022-12-23T03:04:18.616Z,5.53
2022-12-23T03:06:50.711Z,7.07
2022-12-23T03:09:31.336Z,6.00
2022-12-23T03:12:06.638Z,6.80
2022-12-23T03:14:54.360Z,8.03
2022-12-23T03:17:37.253Z,4.37
2022-12-23T03:20:15.227Z,5.80
2022-12-23T03:22:53.490Z,8.53
2022-12-23T03:25:27.309Z,6.37
2022-12-23T03:28:02.382Z,7.07
2022-12-23T03:30:32.972Z,6.33
2022-12-23T03:33:06.549Z,8.47
2022-12-23T03:35:41.526Z,6.33
2022-12-23T03:38:11.236Z,7.57
2022-12-23T03:40:42.720Z,8.67
2022-12-23T03:43:17.355Z,9.13
2022-12-23T03:45:50.902Z,6.27
2022-12-23T03:48:23.823Z,7.53
2022-12-23T03:50:58.920Z,6.43
2022-12-23T03:53:32.276Z,6.60
2022-12-23T03:56:03.148Z,8.47
2022-12-23T03:58:38.903Z,9.97
2022-12-23T04:01:14.038Z,8.67
2022-12-23T04:03:50.382Z,7.57
2022-12-23T04:06:21.853Z,9.73
2022-12-23T04:08:51.271Z,6.23
2022-12-23T04:11:19.697Z,6.43
2022-12-23T04:13:49.178Z,7.83
2022-12-23T04:16:18.037Z,4.87
2022-12-23T04:18:46.397Z,5.47
2022-12-23T04:21:14.672Z,6.07
2022-12-23T04:23:44.323Z,6.37
2022-12-23T04:26:12.607Z,6.17
2022-12-23T04:28:40.872Z,9.17
2022-12-23T04:31:09.333Z,6.33
2022-12-23T04:33:37.621Z,6.03
2022-12-23T04:36:06.629Z,4.50
2022-12-23T04:38:34.959Z,3.43
2022-12-23T04:41:04.705Z,4.03
2022-12-23T04:43:32.984Z,3.07
2022-12-23T04:46:01.335Z,4.20
2022-12-23T04:48:29.615Z,2.63
2022-12-23T04:50:57.882Z,4.23
2022-12-23T04:53:26.205Z,5.27
2022-12-23T04:55:54.527Z,5.30
2022-12-23T04:58:25.060Z,6.73
2022-12-23T05:01:03.024Z,3.90
2022-12-23T05:03:32.071Z,6.00
2022-12-23T05:06:00.396Z,5.07
2022-12-23T05:08:28.967Z,5.83
2022-12-23T05:10:57.551Z,7.93
2022-12-23T05:13:27.514Z,4.30
2022-12-23T05:15:56.361Z,4.03
2022-12-23T05:18:24.706Z,5.33
2022-12-23T05:20:53.132Z,4.87
2022-12-23T05:23:21.413Z,5.27
2022-12-23T05:25:52.989Z,5.23
2022-12-23T05:28:21.707Z,4.20
2022-12-23T05:30:58.206Z,5.30
2022-12-23T05:33:26.898Z,6.43
2022-12-23T05:35:55.390Z,5.23
2022-12-23T05:38:24.435Z,4.80
2022-12-23T05:40:52.942Z,6.00
2022-12-23T05:43:21.298Z,6.20
2022-12-23T05:45:52.361Z,6.00
2022-12-23T05:48:20.727Z,6.57
2022-12-23T05:50:50.644Z,4.97
2022-12-23T05:53:19.277Z,4.17
2022-12-23T05:55:47.705Z,5.73
2022-12-23T05:58:16.190Z,6.13
2022-12-23T06:00:44.515Z,4.93
2022-12-23T06:03:14.320Z,6.70
2022-12-23T06:05:43.826Z,7.90
2022-12-23T06:08:12.098Z,7.33
2022-12-23T06:10:40.393Z,6.37
2022-12-23T06:13:09.325Z,7.07
2022-12-23T06:15:37.645Z,8.53
2022-12-23T06:18:06.180Z,6.40
2022-12-23T06:20:35.918Z,7.67
2022-12-23T06:23:04.509Z,6.13
2022-12-23T06:25:32.787Z,5.93
2022-12-23T06:28:01.077Z,5.40
2022-12-23T06:30:29.409Z,7.20
2022-12-23T06:32:57.763Z,5.90
2022-12-23T06:35:26.101Z,4.47
2022-12-23T06:37:55.828Z,4.40
2022-12-23T06:40:24.107Z,8.67
2022-12-23T06:42:52.446Z,5.07
2022-12-23T06:45:20.712Z,5.20
2022-12-23T06:47:49.014Z,8.37
2022-12-23T06:50:17.479Z,5.77
2022-12-23T06:52:45.961Z,7.53
2022-12-23T06:55:16.015Z,4.60
2022-12-23T06:57:44.268Z,7.03
2022-12-23T07:00:13.999Z,4.37
2022-12-23T07:02:42.399Z,3.37
2022-12-23T07:05:11.807Z,4.77
2022-12-23T07:07:40.122Z,3.23
2022-12-23T07:10:09.612Z,4.60
2022-12-23T07:12:39.812Z,4.40
2022-12-23T07:15:09.668Z,3.23
2022-12-23T07:17:37.989Z,4.53
2022-12-23T07:20:07.708Z,4.90
2022-12-23T07:22:36.100Z,3.50
2022-12-23T07:25:04.966Z,4.97
2022-12-23T07:27:33.239Z,3.97
2022-12-23T07:30:02.864Z,4.03
2022-12-23T07:32:31.176Z,2.00
2022-12-23T07:34:59.456Z,5.83
2022-12-23T07:37:27.923Z,3.40
2022-12-23T07:39:57.366Z,3.27
2022-12-23T07:42:44.053Z,7.87
2022-12-23T07:45:15.345Z,4.63
2022-12-23T07:47:43.721Z,5.27
2022-12-23T07:50:12.777Z,5.37
2022-12-23T07:52:41.191Z,4.90
2022-12-23T07:55:10.065Z,6.73
2022-12-23T07:57:38.501Z,7.37
2022-12-23T08:00:08.558Z,7.97
2022-12-23T08:02:44.749Z,7.43
2022-12-23T08:05:14.335Z,8.47
2022-12-23T08:07:45.042Z,8.87
2022-12-23T08:10:14.117Z,10.30
2022-12-23T08:12:42.539Z,11.13
2022-12-23T08:15:11.181Z,11.83
2022-12-23T08:17:39.496Z,9.90
2022-12-23T08:20:11.605Z,13.07
2022-12-23T08:22:39.939Z,10.03
2022-12-23T08:25:08.885Z,12.87
2022-12-23T08:27:37.235Z,11.33
2022-12-23T08:30:06.565Z,10.00
2022-12-23T08:32:34.891Z,10.90
2022-12-23T08:35:03.209Z,12.63
2022-12-23T08:37:33.092Z,11.20
2022-12-23T08:40:01.509Z,12.73
2022-12-23T08:42:29.813Z,11.27
2022-12-23T08:44:58.189Z,12.87
2022-12-23T08:47:26.420Z,11.00
2022-12-23T08:49:54.818Z,13.13
2022-12-23T08:52:23.089Z,13.50
2022-12-23T08:54:52.800Z,12.30
2022-12-23T08:57:21.107Z,14.33
2022-12-23T08:59:49.416Z,13.10
2022-12-23T09:02:17.753Z,14.50
2022-12-23T09:04:46.249Z,14.30
2022-12-23T09:07:14.578Z,13.73
2022-12-23T09:09:42.890Z,14.33
2022-12-23T09:12:12.629Z,15.20
2022-12-23T09:14:41.032Z,13.47
2022-12-23T09:17:09.783Z,13.50
2022-12-23T09:19:38.100Z,18.43
2022-12-23T09:22:06.399Z,15.57
2022-12-23T09:24:34.812Z,14.30
2022-12-23T09:27:03.072Z,15.47
2022-12-23T09:29:32.754Z,12.43
2022-12-23T09:32:01.432Z,14.20
2022-12-23T09:34:29.725Z,14.53
2022-12-23T09:36:58.095Z,15.50
2022-12-23T09:39:26.757Z,13.90
2022-12-23T09:42:06.178Z,12.27
2022-12-23T09:44:48.794Z,15.43
2022-12-23T09:47:22.001Z,13.37
2022-12-23T09:49:53.622Z,14.27
2022-12-23T09:52:26.484Z,15.10
2022-12-23T09:54:56.467Z,13.87
2022-12-23T09:57:32.550Z,14.13
2022-12-23T10:00:11.360Z,11.43
2022-12-23T10:02:53.040Z,12.47
2022-12-23T10:05:29.512Z,15.47
2022-12-23T10:08:03.707Z,14.70
2022-12-23T10:10:36.059Z,14.93
2022-12-23T10:13:07.219Z,13.70
2022-12-23T10:15:40.334Z,14.37
2022-12-23T10:18:18.213Z,11.63
2022-12-23T10:20:52.047Z,11.60
2022-12-23T10:23:29.939Z,11.17
2022-12-23T10:25:58.451Z,10.93
2022-12-23T10:28:30.011Z,12.27
2022-12-23T10:34:01.424Z,14.07
2022-12-23T10:36:40.559Z,10.63
2022-12-23T10:39:22.068Z,12.63
2022-12-23T10:42:00.753Z,10.47
2022-12-23T10:45:13.135Z,12.43
2022-12-23T10:47:56.284Z,15.40
2022-12-23T10:50:45.857Z,16.03
2022-12-23T10:53:23.470Z,16.60
2022-12-23T10:55:51.965Z,19.13
2022-12-23T10:58:21.914Z,15.93
2022-12-23T11:00:54.896Z,20.60
2022-12-23T11:03:29.573Z,19.03
2022-12-23T11:05:59.446Z,20.93
2022-12-23T11:08:30.642Z,20.60
2022-12-23T11:11:00.945Z,21.53
2022-12-23T11:13:38.859Z,19.97
2022-12-23T11:16:18.626Z,22.93
2022-12-23T11:19:07.332Z,18.17
2022-12-23T11:21:35.932Z,20.47
2022-12-23T11:24:21.867Z,26.20
2022-12-23T11:26:52.056Z,17.07
2022-12-23T11:29:24.999Z,22.70
2022-12-23T11:31:53.853Z,20.23
2022-12-23T11:34:26.704Z,21.83
2022-12-23T11:37:03.292Z,21.43
2022-12-23T11:39:37.947Z,25.33
2022-12-23T11:42:12.247Z,23.17
2022-12-23T11:44:43.569Z,24.47
2022-12-23T11:47:30.894Z,20.77
2022-12-23T11:50:03.136Z,25.07
2022-12-23T11:52:33.683Z,22.90
2022-12-23T11:55:03.587Z,22.37
2022-12-23T11:57:39.585Z,22.23
2022-12-23T12:00:19.008Z,21.47
2022-12-23T12:02:49.570Z,25.50
2022-12-23T12:05:25.941Z,19.40
2022-12-23T12:07:59.490Z,24.97
2022-12-23T12:10:31.594Z,26.30
2022-12-23T12:13:04.875Z,22.17
2022-12-23T12:15:41.081Z,19.60
2022-12-23T12:18:13.572Z,23.53
2022-12-23T12:20:47.775Z,24.53
2022-12-23T12:23:21.895Z,23.97
2022-12-23T12:25:54.253Z,22.10
2022-12-23T12:28:26.092Z,25.70
2022-12-23T12:31:01.649Z,23.53
2022-12-23T12:33:36.859Z,24.03
2022-12-23T12:36:15.745Z,24.50
2022-12-23T12:38:47.717Z,26.23
2022-12-23T12:41:24.383Z,23.40
2022-12-23T12:44:00.192Z,23.50
2022-12-23T12:46:35.328Z,24.00
2022-12-23T12:49:10.255Z,24.50
2022-12-23T12:51:49.443Z,23.17
2022-12-23T12:54:26.764Z,25.83
2022-12-23T12:56:56.738Z,25.60
2022-12-23T12:59:28.435Z,25.97
2022-12-23T13:02:17.099Z,27.80
2022-12-23T13:05:19.233Z,27.20
2022-12-23T13:08:00.795Z,25.37
2022-12-23T13:10:39.291Z,34.97
2022-12-23T13:13:19.852Z,23.27
2022-12-23T13:15:54.617Z,31.30
2022-12-23T13:18:31.687Z,26.73
2022-12-23T13:21:04.953Z,27.97
2022-12-23T13:23:44.026Z,28.53
2022-12-23T13:26:27.279Z,28.80
2022-12-23T13:29:06.177Z,31.63
2022-12-23T13:31:48.656Z,28.47
2022-12-23T13:34:33.355Z,24.30
2022-12-23T13:37:12.373Z,28.00
2022-12-23T13:39:52.796Z,29.77
2022-12-23T13:42:28.777Z,25.90
2022-12-23T13:44:58.190Z,29.13
2022-12-23T13:47:44.862Z,32.30
2022-12-23T13:50:19.051Z,28.03
2022-12-23T13:53:03.097Z,28.73
2022-12-23T13:55:48.291Z,28.43
2022-12-23T13:58:19.432Z,28.93
2022-12-23T14:00:47.955Z,34.57
2022-12-23T14:03:24.004Z,27.60
2022-12-23T14:05:53.357Z,27.07
2022-12-23T14:08:28.323Z,33.63
2022-12-23T14:11:00.637Z,29.37
2022-12-23T14:13:30.900Z,28.57
2022-12-23T14:16:27.739Z,30.07
2022-12-23T14:19:22.396Z,27.03
2022-12-23T14:22:02.255Z,25.13
2022-12-23T14:25:06.616Z,26.80
2022-12-23T14:27:47.739Z,31.33
2022-12-23T14:30:19.509Z,30.83
2022-12-23T14:32:51.096Z,30.13
2022-12-23T14:35:26.736Z,28.70
2022-12-23T14:38:23.566Z,33.27
2022-12-23T14:41:09.424Z,31.77
2022-12-23T14:43:55.807Z,27.77
2022-12-23T14:46:54.720Z,29.70
2022-12-23T14:49:41.446Z,33.37
2022-12-23T14:52:44.351Z,31.97
2022-12-23T14:55:52.857Z,31.67
2022-12-23T14:58:46.523Z,33.97
2022-12-23T15:01:19.543Z,32.40
2022-12-23T15:03:59.263Z,31.73
2022-12-23T15:06:34.440Z,32.80
2022-12-23T15:09:04.038Z,31.13
2022-12-23T15:11:35.426Z,30.77
2022-12-23T15:14:17.507Z,31.20
2022-12-23T15:16:47.274Z,29.93
2022-12-23T15:19:24.382Z,30.40
2022-12-23T15:22:13.531Z,36.33
2022-12-23T15:24:49.400Z,31.67
2022-12-23T15:27:27.377Z,31.53
2022-12-23T15:29:57.287Z,27.13
2022-12-23T15:32:28.897Z,32.40
2022-12-23T15:35:02.226Z,32.70
2022-12-23T15:37:32.790Z,27.33
2022-12-23T15:40:13.379Z,32.63
2022-12-23T15:42:48.804Z,36.93
2022-12-23T15:45:33.235Z,30.27
2022-12-23T15:48:04.427Z,31.27
2022-12-23T15:50:40.417Z,32.90
2022-12-23T15:53:13.923Z,31.40
2022-12-23T15:55:42.325Z,31.30
2022-12-23T15:58:19.826Z,32.23
2022-12-23T16:00:54.408Z,27.27
2022-12-23T16:03:30.852Z,29.80
2022-12-23T16:06:11.772Z,29.60
2022-12-23T16:08:40.223Z,42.40
2022-12-23T16:11:16.021Z,37.03
2022-12-23T16:13:58.696Z,32.17
2022-12-23T16:16:38.627Z,29.97
2022-12-23T16:19:24.638Z,29.13
2022-12-23T16:21:53.065Z,28.67
2022-12-23T16:24:22.281Z,35.17
2022-12-23T16:26:50.643Z,28.03
2022-12-23T16:29:19.047Z,33.67
2022-12-23T16:31:54.287Z,28.43
2022-12-23T16:34:27.225Z,35.57
2022-12-23T16:36:55.610Z,27.60
2022-12-23T16:39:24.469Z,32.53
2022-12-23T16:41:53.156Z,35.03
2022-12-23T16:44:21.495Z,25.60
2022-12-23T16:46:52.022Z,34.30
2022-12-23T16:49:22.449Z,33.90
2022-12-23T16:51:54.725Z,30.40
2022-12-23T16:54:23.136Z,34.63
2022-12-23T16:56:51.495Z,28.90
2022-12-23T16:59:21.052Z,31.97
2022-12-23T17:01:50.639Z,29.90
2022-12-23T17:04:19.087Z,29.70
2022-12-23T17:06:47.440Z,43.50
2022-12-23T17:09:17.101Z,36.80
2022-12-23T17:11:48.319Z,33.53
2022-12-23T17:14:18.841Z,32.10
2022-12-23T17:16:48.216Z,30.83
2022-12-23T17:19:21.902Z,60.87
2022-12-23T17:21:58.693Z,43.90
2022-12-23T17:24:28.445Z,42.07
2022-12-23T17:26:57.153Z,35.63
2022-12-23T17:29:25.786Z,42.27
2022-12-23T17:31:54.410Z,35.10
2022-12-23T17:34:24.379Z,34.23
2022-12-23T17:36:53.478Z,34.50
2022-12-23T17:39:22.987Z,49.97
2022-12-23T17:41:52.883Z,52.93
2022-12-23T17:44:21.318Z,34.80
2022-12-23T17:46:49.655Z,45.57
2022-12-23T17:49:17.989Z,36.53
2022-12-23T17:51:46.468Z,41.87
2022-12-23T17:54:22.677Z,42.70
2022-12-23T17:56:53.160Z,51.33
2022-12-23T17:59:21.919Z,52.27
2022-12-23T18:01:50.789Z,41.43
2022-12-23T18:04:19.189Z,41.80
2022-12-23T18:06:47.580Z,38.93
2022-12-23T18:09:16.700Z,38.03
2022-12-23T18:11:47.506Z,39.50
2022-12-23T18:14:19.453Z,38.57
2022-12-23T18:16:47.888Z,39.07
2022-12-23T18:19:19.251Z,41.47
2022-12-23T18:21:47.977Z,36.63
2022-12-23T18:24:16.855Z,38.67
2022-12-23T18:26:45.759Z,39.07
2022-12-23T18:29:14.225Z,36.87
2022-12-23T18:31:52.086Z,35.57
2022-12-23T18:34:21.608Z,35.00
2022-12-23T18:36:51.773Z,34.67
2022-12-23T18:39:21.005Z,39.73
2022-12-23T18:41:49.605Z,48.30
2022-12-23T18:44:20.133Z,43.50
2022-12-23T18:46:50.524Z,36.37
2022-12-23T18:49:19.170Z,38.60
2022-12-23T18:51:47.830Z,38.33
2022-12-23T18:54:17.056Z,41.13
2022-12-23T18:56:45.655Z,39.73
2022-12-23T18:59:19.277Z,46.23
2022-12-23T19:01:53.339Z,49.63
2022-12-23T19:04:21.736Z,43.80
2022-12-23T19:06:50.032Z,54.10
2022-12-23T19:09:21.289Z,48.37
2022-12-23T19:11:51.154Z,49.50
2022-12-23T19:14:19.536Z,42.73
2022-12-23T19:16:52.100Z,54.13
2022-12-23T19:19:23.018Z,41.07
2022-12-23T19:21:51.411Z,41.07
2022-12-23T19:24:19.733Z,43.60
2022-12-23T19:26:48.277Z,42.70
2022-12-23T19:29:16.914Z,59.23
2022-12-23T19:31:45.230Z,51.03
2022-12-23T19:34:15.760Z,57.13
2022-12-23T19:36:45.932Z,47.23
2022-12-23T19:39:16.679Z,33.53
2022-12-23T19:41:45.668Z,44.20
2022-12-23T19:44:14.238Z,35.37
2022-12-23T19:46:42.920Z,39.03
2022-12-23T19:49:17.577Z,42.00
2022-12-23T19:51:49.780Z,42.70
2022-12-23T19:54:19.095Z,57.93
2022-12-23T19:56:50.784Z,51.07
2022-12-23T19:59:19.624Z,54.70
2022-12-23T20:01:48.220Z,45.20
2022-12-23T20:04:17.042Z,38.27
2022-12-23T20:06:45.355Z,36.63
2022-12-23T20:09:15.168Z,38.13
2022-12-23T20:11:45.165Z,36.37
2022-12-23T20:14:15.678Z,35.40
2022-12-23T20:16:44.389Z,38.83
2022-12-23T20:19:12.943Z,31.60
2022-12-23T20:21:41.399Z,37.03
2022-12-23T20:24:10.436Z,47.30
2022-12-23T20:26:40.557Z,44.80
2022-12-23T20:29:09.763Z,43.83
2022-12-23T20:31:39.563Z,44.13
2022-12-23T20:34:10.280Z,40.27
2022-12-23T20:36:39.318Z,39.07
2022-12-23T20:39:08.459Z,59.90
2022-12-23T20:41:36.914Z,46.97
2022-12-23T20:46:56.588Z,47.73
2022-12-23T20:49:25.056Z,50.67
2022-12-23T20:51:53.494Z,50.73
2022-12-23T20:54:26.346Z,55.83
2022-12-23T20:56:58.233Z,44.43
2022-12-23T20:59:27.874Z,44.87
2022-12-23T21:01:56.531Z,50.57
2022-12-23T21:04:24.912Z,52.67
2022-12-23T21:06:53.401Z,43.93
2022-12-23T21:09:21.838Z,38.97
2022-12-23T21:11:50.302Z,41.23
2022-12-23T21:14:18.731Z,42.43
2022-12-23T21:16:48.521Z,49.87
2022-12-23T21:19:20.506Z,48.00
2022-12-23T21:21:49.578Z,44.87
2022-12-23T21:24:18.500Z,43.70
2022-12-23T21:26:55.420Z,52.20
2022-12-23T21:29:24.364Z,46.80
2022-12-23T21:31:55.092Z,55.90
2022-12-23T21:34:23.784Z,44.03
2022-12-23T21:36:52.118Z,44.33
2022-12-23T21:39:20.524Z,37.93
2022-12-23T21:41:51.017Z,48.83
2022-12-23T21:44:19.458Z,48.80
2022-12-23T21:46:47.890Z,42.67
2022-12-23T21:49:17.636Z,49.97
2022-12-23T21:51:46.032Z,43.00
2022-12-23T21:54:14.561Z,42.97
2022-12-23T21:56:43.233Z,43.07
2022-12-23T21:59:13.962Z,41.80
2022-12-23T22:01:42.685Z,41.93
2022-12-23T22:04:11.560Z,43.13
2022-12-23T22:06:44.562Z,43.43
2022-12-23T22:09:15.418Z,51.60
2022-12-23T22:11:44.077Z,49.43
2022-12-23T22:14:15.235Z,42.27
2022-12-23T22:16:43.576Z,47.17
2022-12-23T22:19:13.147Z,39.33
2022-12-23T22:21:43.195Z,47.90
2022-12-23T22:24:12.246Z,39.43
2022-12-23T22:26:41.678Z,43.23
2022-12-23T22:29:11.700Z,40.37
2022-12-23T22:31:43.099Z,37.67
2022-12-23T22:34:15.134Z,43.97
2022-12-23T22:36:45.129Z,43.57
2022-12-23T22:39:20.003Z,43.13
2022-12-23T22:41:50.094Z,41.77
2022-12-23T22:44:18.874Z,41.47
2022-12-23T22:46:47.497Z,42.60
2022-12-23T22:49:16.794Z,38.17
2022-12-23T22:51:46.576Z,49.70
2022-12-23T22:54:15.261Z,48.60
2022-12-23T22:56:43.516Z,43.47
2022-12-23T22:59:20.980Z,45.47
2022-12-23T23:01:50.809Z,40.77
2022-12-23T23:04:19.719Z,40.33
2022-12-23T23:06:49.461Z,39.93
2022-12-23T23:09:19.837Z,44.50
2022-12-23T23:11:48.287Z,49.77
2022-12-23T23:14:17.174Z,49.43
2022-12-23T23:16:45.735Z,41.07
2022-12-23T23:19:15.105Z,36.03
2022-12-23T23:21:43.534Z,40.43
2022-12-23T23:24:13.248Z,42.37
2022-12-23T23:26:41.771Z,47.00
2022-12-23T23:29:10.113Z,47.50
2022-12-23T23:31:43.335Z,44.47
2022-12-23T23:34:13.658Z,41.83
2022-12-23T23:36:42.651Z,47.07
2022-12-23T23:39:14.203Z,48.43
2022-12-23T23:41:42.863Z,41.03
2022-12-23T23:44:11.648Z,36.50
2022-12-23T23:46:40.410Z,46.17
2022-12-23T23:49:08.783Z,38.43
2022-12-23T23:51:37.126Z,35.73
2022-12-23T23:54:05.701Z,40.87
2022-12-23T23:56:38.640Z,40.97
2022-12-23T23:59:08.411Z,36.47
